sensor_id;sensor_type;location;lat;lon;timestamp;pressure;altitude;pressure_sealevel;temperature;humidity
32789;BME280;19141;48.980;8.410;2023-02-13T05:22:32;102216.47;;;1.52;100.00
32789;BME280;19141;48.980;8.410;2023-02-13T05:25:16;102216.56;;;1.51;100.00
32789;BME280;19141;48.980;8.410;2023-02-13T05:27:42;102224.13;;;1.38;100.00
32789;BME280;19141;48.980;8.410;2023-02-13T05:30:07;102221.34;;;1.41;100.00
32789;BME280;19141;48.980;8.410;2023-02-13T05:32:33;102222.59;;;1.32;100.00
32789;BME280;19141;48.980;8.410;2023-02-13T05:34:58;102220.91;;;1.31;100.00
32789;BME280;19141;48.980;8.410;2023-02-13T05:37:24;102218.28;;;1.31;100.00
32789;BME280;19141;48.980;8.410;2023-02-13T05:39:49;102216.56;;;1.30;100.00
32789;BME280;19141;48.980;8.410;2023-02-13T05:42:14;102227.78;;;1.34;100.00
32789;BME280;19141;48.980;8.410;2023-02-13T05:44:40;102229.03;;;1.25;100.00
32789;BME280;19141;48.980;8.410;2023-02-13T05:47:05;102227.34;;;1.24;100.00
32789;BME280;19141;48.980;8.410;2023-02-13T05:49:31;102226.25;;;1.28;100.00
32789;BME280;19141;48.980;8.410;2023-02-13T05:51:56;102234.88;;;1.32;100.00
32789;BME280;19141;48.980;8.410;2023-02-13T05:54:21;102233.81;;;1.36;100.00
32789;BME280;19141;48.980;8.410;2023-02-13T05:56:47;102230.34;;;1.35;100.00
32789;BME280;19141;48.980;8.410;2023-02-13T05:59:12;102231.25;;;1.34;100.00
32789;BME280;19141;48.980;8.410;2023-02-13T06:01:38;102229.47;;;1.35;100.00
32789;BME280;19141;48.980;8.410;2023-02-13T06:04:03;102220.94;;;1.30;100.00
32789;BME280;19141;48.980;8.410;2023-02-13T06:06:29;102225.22;;;1.32;100.00
32789;BME280;19141;48.980;8.410;2023-02-13T06:08:54;102227.84;;;1.32;100.00
32789;BME280;19141;48.980;8.410;2023-02-13T06:11:20;102218.53;;;1.25;100.00
32789;BME280;19141;48.980;8.410;2023-02-13T06:13:46;102226.25;;;1.28;100.00
32789;BME280;19141;48.980;8.410;2023-02-13T06:16:11;102215.56;;;1.13;100.00
32789;BME280;19141;48.980;8.410;2023-02-13T06:18:37;102218.91;;;1.16;100.00
32789;BME280;19141;48.980;8.410;2023-02-13T06:21:04;102216.75;;;1.26;100.00
32789;BME280;19141;48.980;8.410;2023-02-13T06:23:29;102221.41;;;1.19;100.00
32789;BME280;19141;48.980;8.410;2023-02-13T06:25:55;102218.91;;;1.16;100.00
32789;BME280;19141;48.980;8.410;2023-02-13T06:28:21;102219.91;;;1.14;100.00
32789;BME280;19141;48.980;8.410;2023-02-13T06:30:47;102228.09;;;1.06;100.00
32789;BME280;19141;48.980;8.410;2023-02-13T06:33:13;102228.94;;;1.06;100.00
32789;BME280;19141;48.980;8.410;2023-02-13T06:35:39;102238.84;;;1.00;100.00
32789;BME280;19141;48.980;8.410;2023-02-13T06:38:04;102243.56;;;0.92;100.00
32789;BME280;19141;48.980;8.410;2023-02-13T06:40:29;102244.28;;;0.95;100.00
32789;BME280;19141;48.980;8.410;2023-02-13T06:42:55;102252.16;;;0.95;100.00
32789;BME280;19141;48.980;8.410;2023-02-13T06:45:20;102252.16;;;0.95;100.00
32789;BME280;19141;48.980;8.410;2023-02-13T06:47:47;102249.72;;;0.91;100.00
32789;BME280;19141;48.980;8.410;2023-02-13T06:50:13;102246.97;;;0.94;100.00
32789;BME280;19141;48.980;8.410;2023-02-13T06:52:45;102247.81;;;0.94;100.00
32789;BME280;19141;48.980;8.410;2023-02-13T06:55:10;102246.78;;;0.98;100.00
32789;BME280;19141;48.980;8.410;2023-02-13T06:57:36;102246.78;;;0.98;100.00
32789;BME280;19141;48.980;8.410;2023-02-13T07:00:02;102250.28;;;0.99;100.00
32789;BME280;19141;48.980;8.410;2023-02-13T07:02:31;102250.91;;;1.04;100.00
32789;BME280;19141;48.980;8.410;2023-02-13T07:04:56;102257.22;;;1.00;100.00
32789;BME280;19141;48.980;8.410;2023-02-13T07:07:21;102259.97;;;0.97;100.00
32789;BME280;19141;48.980;8.410;2023-02-13T07:09:47;102262.72;;;0.94;100.00
32789;BME280;19141;48.980;8.410;2023-02-13T07:12:12;102266.59;;;0.85;100.00
32789;BME280;19141;48.980;8.410;2023-02-13T07:14:38;102266.16;;;0.74;100.00
32789;BME280;19141;48.980;8.410;2023-02-13T07:17:03;102272.78;;;0.82;100.00
32789;BME280;19141;48.980;8.410;2023-02-13T07:19:28;102271.22;;;0.78;100.00
32789;BME280;19141;48.980;8.410;2023-02-13T07:21:54;102271.50;;;0.93;100.00
32789;BME280;19141;48.980;8.410;2023-02-13T07:24:19;102270.69;;;0.91;100.00
32789;BME280;19141;48.980;8.410;2023-02-13T07:26:45;102275.91;;;0.92;100.00
32789;BME280;19141;48.980;8.410;2023-02-13T07:29:10;102277.69;;;0.92;100.00
32789;BME280;19141;48.980;8.410;2023-02-13T07:31:35;102272.25;;;0.74;100.00
32789;BME280;19141;48.980;8.410;2023-02-13T07:34:01;102279.63;;;0.87;100.00
32789;BME280;19141;48.980;8.410;2023-02-13T07:36:27;102282.94;;;0.92;100.00
32789;BME280;19141;48.980;8.410;2023-02-13T07:38:52;102283.41;;;1.01;100.00
32789;BME280;19141;48.980;8.410;2023-02-13T07:41:19;102282.41;;;1.04;100.00
32789;BME280;19141;48.980;8.410;2023-02-13T07:43:44;102290.72;;;1.15;100.00
32789;BME280;19141;48.980;8.410;2023-02-13T07:46:09;102292.31;;;1.19;100.00
32789;BME280;19141;48.980;8.410;2023-02-13T07:48:35;102293.81;;;1.25;100.00
32789;BME280;19141;48.980;8.410;2023-02-13T07:51:02;102291.66;;;1.34;100.00
32789;BME280;19141;48.980;8.410;2023-02-13T07:53:28;102295.72;;;1.42;100.00
32789;BME280;19141;48.980;8.410;2023-02-13T07:55:54;102290.88;;;1.53;100.00
32789;BME280;19141;48.980;8.410;2023-02-13T07:58:19;102299.22;;;1.62;100.00
32789;BME280;19141;48.980;8.410;2023-02-13T08:00:45;102293.56;;;1.72;100.00
32789;BME280;19141;48.980;8.410;2023-02-13T08:03:10;102297.50;;;1.82;100.00
32789;BME280;19141;48.980;8.410;2023-02-13T08:05:35;102300.78;;;1.87;100.00
32789;BME280;19141;48.980;8.410;2023-02-13T08:08:01;102294.31;;;1.94;100.00
32789;BME280;19141;48.980;8.410;2023-02-13T08:10:27;102301.50;;;1.90;100.00
32789;BME280;19141;48.980;8.410;2023-02-13T08:13:12;102293.84;;;2.05;100.00
32789;BME280;19141;48.980;8.410;2023-02-13T08:15:39;102302.25;;;2.13;100.00
32789;BME280;19141;48.980;8.410;2023-02-13T08:18:04;102293.03;;;2.23;100.00
32789;BME280;19141;48.980;8.410;2023-02-13T08:20:30;102304.81;;;2.33;100.00
32789;BME280;19141;48.980;8.410;2023-02-13T08:23:06;102301.56;;;2.28;100.00
32789;BME280;19141;48.980;8.410;2023-02-13T08:25:32;102309.22;;;2.33;100.00
32789;BME280;19141;48.980;8.410;2023-02-13T08:27:58;102297.59;;;2.38;100.00
32789;BME280;19141;48.980;8.410;2023-02-13T08:30:24;102303.34;;;2.47;100.00
32789;BME280;19141;48.980;8.410;2023-02-13T08:32:49;102305.84;;;2.50;100.00
32789;BME280;19141;48.980;8.410;2023-02-13T08:35:15;102302.28;;;2.51;100.00
32789;BME280;19141;48.980;8.410;2023-02-13T08:37:40;102293.75;;;2.45;100.00
32789;BME280;19141;48.980;8.410;2023-02-13T08:40:06;102302.47;;;2.65;100.00
32789;BME280;19141;48.980;8.410;2023-02-13T08:42:35;102304.47;;;2.79;100.00
32789;BME280;19141;48.980;8.410;2023-02-13T08:45:00;102306.88;;;2.83;100.00
32789;BME280;19141;48.980;8.410;2023-02-13T08:47:26;102302.00;;;2.76;100.00
32789;BME280;19141;48.980;8.410;2023-02-13T08:49:51;102294.16;;;2.74;100.00
32789;BME280;19141;48.980;8.410;2023-02-13T08:52:17;102306.28;;;2.95;100.00
32789;BME280;19141;48.980;8.410;2023-02-13T08:54:42;102313.16;;;2.62;100.00
32789;BME280;19141;48.980;8.410;2023-02-13T08:57:07;102317.22;;;2.69;100.00
32789;BME280;19141;48.980;8.410;2023-02-13T08:59:33;102316.97;;;2.73;100.00
32789;BME280;19141;48.980;8.410;2023-02-13T09:01:58;102315.78;;;2.81;100.00
32789;BME280;19141;48.980;8.410;2023-02-13T09:04:24;102318.63;;;2.38;100.00
32789;BME280;19141;48.980;8.410;2023-02-13T09:06:49;102320.22;;;2.42;100.00
32789;BME280;19141;48.980;8.410;2023-02-13T09:09:14;102319.00;;;2.50;100.00
32789;BME280;19141;48.980;8.410;2023-02-13T09:11:40;102318.56;;;2.59;100.00
32789;BME280;19141;48.980;8.410;2023-02-13T09:14:06;102323.59;;;2.44;100.00
32789;BME280;19141;48.980;8.410;2023-02-13T09:16:31;102320.13;;;2.44;100.00
32789;BME280;19141;48.980;8.410;2023-02-13T09:18:56;102315.16;;;2.38;100.00
32789;BME280;19141;48.980;8.410;2023-02-13T09:21:22;102306.72;;;2.11;100.00
32789;BME280;19141;48.980;8.410;2023-02-13T09:23:50;102308.59;;;2.28;100.00
32789;BME280;19141;48.980;8.410;2023-02-13T09:26:17;102297.91;;;2.12;100.00
32789;BME280;19141;48.980;8.410;2023-02-13T09:28:43;102315.63;;;2.27;100.00
32789;BME280;19141;48.980;8.410;2023-02-13T09:31:19;102319.56;;;2.37;100.00
32789;BME280;19141;48.980;8.410;2023-02-13T09:33:45;102325.75;;;2.36;100.00
32789;BME280;19141;48.980;8.410;2023-02-13T09:36:14;102325.88;;;2.33;100.00
32789;BME280;19141;48.980;8.410;2023-02-13T09:38:40;102323.88;;;2.38;100.00
32789;BME280;19141;48.980;8.410;2023-02-13T09:41:23;102331.34;;;2.48;100.00
32789;BME280;19141;48.980;8.410;2023-02-13T09:50:23;102332.44;;;2.81;100.00
32789;BME280;19141;48.980;8.410;2023-02-13T09:52:51;102335.69;;;2.86;100.00
32789;BME280;19141;48.980;8.410;2023-02-13T09:55:22;102342.06;;;2.99;100.00
32789;BME280;19141;48.980;8.410;2023-02-13T09:58:13;102329.69;;;3.02;100.00
32789;BME280;19141;48.980;8.410;2023-02-13T10:00:48;102339.94;;;3.08;100.00
32789;BME280;19141;48.980;8.410;2023-02-13T10:03:31;102326.66;;;3.28;100.00
32789;BME280;19141;48.980;8.410;2023-02-13T10:06:07;102342.44;;;3.45;100.00
32789;BME280;19141;48.980;8.410;2023-02-13T10:08:51;102344.47;;;3.58;100.00
32789;BME280;19141;48.980;8.410;2023-02-13T10:14:17;102347.50;;;3.67;100.00
32789;BME280;19141;48.980;8.410;2023-02-13T10:16:49;102350.53;;;3.77;100.00
32789;BME280;19141;48.980;8.410;2023-02-13T10:19:48;102348.38;;;3.85;100.00
32789;BME280;19141;48.980;8.410;2023-02-13T10:22:19;102338.44;;;3.73;100.00
32789;BME280;19141;48.980;8.410;2023-02-13T10:25:15;102333.81;;;4.11;100.00
32789;BME280;19141;48.980;8.410;2023-02-13T10:27:46;102337.13;;;4.79;100.00
32789;BME280;19141;48.980;8.410;2023-02-13T10:30:27;102340.00;;;5.52;97.30
32789;BME280;19141;48.980;8.410;2023-02-13T10:33:09;102326.53;;;6.44;91.66
32789;BME280;19141;48.980;8.410;2023-02-13T10:35:49;102333.31;;;6.76;88.53
32789;BME280;19141;48.980;8.410;2023-02-13T10:38:18;102331.88;;;7.12;86.74
32789;BME280;19141;48.980;8.410;2023-02-13T10:46:25;102329.31;;;7.38;82.39
32789;BME280;19141;48.980;8.410;2023-02-13T10:49:22;102316.31;;;8.86;75.25
32789;BME280;19141;48.980;8.410;2023-02-13T10:52:18;102312.16;;;8.94;72.86
32789;BME280;19141;48.980;8.410;2023-02-13T11:00:24;102311.81;;;11.04;63.74
32789;BME280;19141;48.980;8.410;2023-02-13T11:02:55;102309.94;;;11.48;60.87
32789;BME280;19141;48.980;8.410;2023-02-13T11:05:31;102300.91;;;12.42;57.86
32789;BME280;19141;48.980;8.410;2023-02-13T11:07:56;102305.09;;;12.04;58.43
32789;BME280;19141;48.980;8.410;2023-02-13T11:10:25;102295.38;;;11.20;60.96
32789;BME280;19141;48.980;8.410;2023-02-13T11:12:52;102299.19;;;11.38;60.39
32789;BME280;19141;48.980;8.410;2023-02-13T11:15:29;102289.91;;;11.95;58.43
32789;BME280;19141;48.980;8.410;2023-02-13T11:17:57;102293.44;;;13.05;55.03
32789;BME280;19141;48.980;8.410;2023-02-13T11:20:38;102296.25;;;12.94;54.27
32789;BME280;19141;48.980;8.410;2023-02-13T11:28:26;102280.75;;;11.77;56.48
32789;BME280;19141;48.980;8.410;2023-02-13T11:31:09;102279.06;;;12.27;56.11
32789;BME280;19141;48.980;8.410;2023-02-13T11:33:34;102278.09;;;13.17;55.03
32789;BME280;19141;48.980;8.410;2023-02-13T11:36:08;102276.81;;;13.69;52.78
32789;BME280;19141;48.980;8.410;2023-02-13T11:38:34;102277.56;;;13.23;51.59
32789;BME280;19141;48.980;8.410;2023-02-13T11:41:09;102267.47;;;14.75;49.53
32789;BME280;19141;48.980;8.410;2023-02-13T11:43:49;102268.63;;;13.61;50.73
32789;BME280;19141;48.980;8.410;2023-02-13T11:46:20;102266.41;;;13.56;51.20
32789;BME280;19141;48.980;8.410;2023-02-13T11:49:00;102261.91;;;13.57;51.29
32789;BME280;19141;48.980;8.410;2023-02-13T11:51:44;102261.56;;;14.44;50.13
32789;BME280;19141;48.980;8.410;2023-02-13T11:56:49;102243.72;;;15.42;47.43
32789;BME280;19141;48.980;8.410;2023-02-13T11:59:15;102249.34;;;13.95;49.63
32789;BME280;19141;48.980;8.410;2023-02-13T12:01:41;102246.06;;;14.10;50.94
32789;BME280;19141;48.980;8.410;2023-02-13T12:04:14;102240.25;;;16.01;45.67
32789;BME280;19141;48.980;8.410;2023-02-13T12:06:40;102245.56;;;13.97;48.26
32789;BME280;19141;48.980;8.410;2023-02-13T12:09:21;102244.78;;;15.49;46.89
32789;BME280;19141;48.980;8.410;2023-02-13T12:11:52;102234.72;;;16.03;45.53
32789;BME280;19141;48.980;8.410;2023-02-13T12:14:24;102238.53;;;15.40;46.30
32789;BME280;19141;48.980;8.410;2023-02-13T12:17:18;102240.91;;;15.26;46.64
32789;BME280;19141;48.980;8.410;2023-02-13T12:19:47;102235.72;;;14.71;47.65
32789;BME280;19141;48.980;8.410;2023-02-13T12:22:29;102240.09;;;14.72;48.73
32789;BME280;19141;48.980;8.410;2023-02-13T12:36:00;102224.22;;;14.78;48.01
32789;BME280;19141;48.980;8.410;2023-02-13T12:41:21;102216.66;;;15.35;47.42
32789;BME280;19141;48.980;8.410;2023-02-13T12:44:14;102215.63;;;15.54;47.35
32789;BME280;19141;48.980;8.410;2023-02-13T12:49:57;102210.47;;;15.17;47.60
32789;BME280;19141;48.980;8.410;2023-02-13T13:01:34;102204.63;;;14.05;49.68
32789;BME280;19141;48.980;8.410;2023-02-13T13:04:31;102202.34;;;12.87;53.30
32789;BME280;19141;48.980;8.410;2023-02-13T13:09:59;102198.41;;;12.72;55.29
32789;BME280;19141;48.980;8.410;2023-02-13T13:12:52;102196.59;;;12.72;54.45
32789;BME280;19141;48.980;8.410;2023-02-13T13:18:03;102190.22;;;13.02;54.70
32789;BME280;19141;48.980;8.410;2023-02-13T13:23:19;102187.81;;;12.51;56.26
32789;BME280;19141;48.980;8.410;2023-02-13T13:25:51;102185.28;;;12.49;58.07
32789;BME280;19141;48.980;8.410;2023-02-13T13:28:22;102184.44;;;12.49;57.14
32789;BME280;19141;48.980;8.410;2023-02-13T13:30:49;102181.44;;;12.13;59.68
32789;BME280;19141;48.980;8.410;2023-02-13T13:33:18;102186.28;;;11.89;59.97
32789;BME280;19141;48.980;8.410;2023-02-13T13:35:57;102183.59;;;11.89;59.41
32789;BME280;19141;48.980;8.410;2023-02-13T13:39:02;102179.22;;;11.57;60.84
32789;BME280;19141;48.980;8.410;2023-02-13T13:42:08;102177.03;;;11.41;61.54
32789;BME280;19141;48.980;8.410;2023-02-13T13:45:13;102184.63;;;11.46;62.29
32789;BME280;19141;48.980;8.410;2023-02-13T13:50:43;102188.34;;;11.34;63.80
32789;BME280;19141;48.980;8.410;2023-02-13T13:53:17;102179.00;;;11.19;63.49
32789;BME280;19141;48.980;8.410;2023-02-13T14:03:34;102182.25;;;10.69;66.32
32789;BME280;19141;48.980;8.410;2023-02-13T14:06:04;102183.16;;;10.58;68.23
32789;BME280;19141;48.980;8.410;2023-02-13T14:11:23;102185.16;;;10.23;68.63
32789;BME280;19141;48.980;8.410;2023-02-13T14:13:50;102185.41;;;10.20;70.42
32789;BME280;19141;48.980;8.410;2023-02-13T14:16:42;102183.22;;;10.14;70.24
32789;BME280;19141;48.980;8.410;2023-02-13T14:19:31;102185.19;;;10.12;69.97
32789;BME280;19141;48.980;8.410;2023-02-13T14:22:26;102176.91;;;10.15;69.41
32789;BME280;19141;48.980;8.410;2023-02-13T14:24:58;102182.50;;;10.12;71.16
32789;BME280;19141;48.980;8.410;2023-02-13T14:27:33;102181.63;;;10.22;70.91
32789;BME280;19141;48.980;8.410;2023-02-13T14:30:02;102176.09;;;10.03;70.67
32789;BME280;19141;48.980;8.410;2023-02-13T14:32:36;102168.00;;;10.04;71.42
32789;BME280;19141;48.980;8.410;2023-02-13T14:35:28;102169.19;;;10.00;70.72
32789;BME280;19141;48.980;8.410;2023-02-13T14:38:00;102153.00;;;9.92;72.75
32789;BME280;19141;48.980;8.410;2023-02-13T14:40:50;102160.00;;;10.04;71.83
32789;BME280;19141;48.980;8.410;2023-02-13T14:43:29;102157.94;;;10.08;71.58
32789;BME280;19141;48.980;8.410;2023-02-13T14:46:02;102159.66;;;9.75;72.46
32789;BME280;19141;48.980;8.410;2023-02-13T14:52:06;102154.34;;;9.64;73.42
32789;BME280;19141;48.980;8.410;2023-02-13T14:54:44;102132.22;;;9.52;73.46
32789;BME280;19141;48.980;8.410;2023-02-13T14:57:19;102132.78;;;9.22;74.50
32789;BME280;19141;48.980;8.410;2023-02-13T14:59:52;102139.50;;;9.04;76.05
32789;BME280;19141;48.980;8.410;2023-02-13T15:02:27;102134.81;;;9.08;76.88
32789;BME280;19141;48.980;8.410;2023-02-13T15:05:03;102135.88;;;8.94;77.70
32789;BME280;19141;48.980;8.410;2023-02-13T15:07:34;102144.41;;;8.86;78.03
32789;BME280;19141;48.980;8.410;2023-02-13T15:10:19;102143.38;;;8.65;79.13
32789;BME280;19141;48.980;8.410;2023-02-13T15:13:00;102138.25;;;8.51;79.82
32789;BME280;19141;48.980;8.410;2023-02-13T15:15:31;102138.75;;;8.56;80.35
32789;BME280;19141;48.980;8.410;2023-02-13T15:18:08;102129.94;;;8.55;79.94
32789;BME280;19141;48.980;8.410;2023-02-13T15:20:37;102124.72;;;8.54;80.50
32789;BME280;19141;48.980;8.410;2023-02-13T15:23:05;102126.84;;;8.61;79.98
32789;BME280;19141;48.980;8.410;2023-02-13T15:25:38;102124.13;;;8.50;80.51
32789;BME280;19141;48.980;8.410;2023-02-13T15:28:17;102124.69;;;8.42;80.92
32789;BME280;19141;48.980;8.410;2023-02-13T15:30:52;102122.03;;;8.42;81.50
32789;BME280;19141;48.980;8.410;2023-02-13T15:33:20;102128.53;;;8.38;81.12
32789;BME280;19141;48.980;8.410;2023-02-13T15:35:56;102125.56;;;8.43;81.05
32789;BME280;19141;48.980;8.410;2023-02-13T15:40:53;102127.03;;;8.34;81.58
32789;BME280;19141;48.980;8.410;2023-02-13T15:43:33;102123.13;;;8.27;82.17
32789;BME280;19141;48.980;8.410;2023-02-13T15:46:02;102130.03;;;8.30;81.81
32789;BME280;19141;48.980;8.410;2023-02-13T15:48:31;102133.78;;;8.14;82.60
32789;BME280;19141;48.980;8.410;2023-02-13T15:50:57;102130.41;;;8.12;82.84
32789;BME280;19141;48.980;8.410;2023-02-13T15:53:23;102130.81;;;8.19;82.68
32789;BME280;19141;48.980;8.410;2023-02-13T15:56:00;102127.44;;;8.17;82.85
32789;BME280;19141;48.980;8.410;2023-02-13T15:58:29;102132.94;;;8.14;83.06
32789;BME280;19141;48.980;8.410;2023-02-13T16:00:55;102132.94;;;8.14;82.83
32789;BME280;19141;48.980;8.410;2023-02-13T16:03:22;102135.56;;;8.03;83.30
32789;BME280;19141;48.980;8.410;2023-02-13T16:05:49;102128.44;;;8.03;83.00
32789;BME280;19141;48.980;8.410;2023-02-13T16:08:35;102128.09;;;8.08;83.17
32789;BME280;19141;48.980;8.410;2023-02-13T16:11:28;102133.84;;;8.02;84.04
32789;BME280;19141;48.980;8.410;2023-02-13T16:16:46;102134.50;;;7.93;83.64
32789;BME280;19141;48.980;8.410;2023-02-13T16:19:26;102128.59;;;7.89;85.28
32789;BME280;19141;48.980;8.410;2023-02-13T16:21:53;102126.47;;;7.81;85.02
32789;BME280;19141;48.980;8.410;2023-02-13T16:24:20;102126.69;;;7.78;84.90
32789;BME280;19141;48.980;8.410;2023-02-13T16:26:46;102123.34;;;7.64;86.01
32789;BME280;19141;48.980;8.410;2023-02-13T16:29:18;102120.88;;;7.60;85.87
32789;BME280;19141;48.980;8.410;2023-02-13T16:31:44;102120.91;;;7.48;86.71
32789;BME280;19141;48.980;8.410;2023-02-13T16:34:25;102129.09;;;7.45;87.00
32789;BME280;19141;48.980;8.410;2023-02-13T16:36:51;102125.16;;;7.38;87.20
32789;BME280;19141;48.980;8.410;2023-02-13T16:39:25;102128.44;;;7.28;87.69
32789;BME280;19141;48.980;8.410;2023-02-13T16:41:51;102114.88;;;7.20;88.26
32789;BME280;19141;48.980;8.410;2023-02-13T16:44:22;102128.44;;;7.16;88.74
32789;BME280;19141;48.980;8.410;2023-02-13T16:47:18;102125.47;;;7.07;89.12
32789;BME280;19141;48.980;8.410;2023-02-13T16:49:52;102128.66;;;7.00;89.84
32789;BME280;19141;48.980;8.410;2023-02-13T16:52:20;102126.13;;;6.98;90.00
32789;BME280;19141;48.980;8.410;2023-02-13T16:54:56;102130.22;;;6.90;90.24
32789;BME280;19141;48.980;8.410;2023-02-13T16:57:30;102133.28;;;6.84;90.75
32789;BME280;19141;48.980;8.410;2023-02-13T17:02:36;102121.28;;;6.65;91.20
32789;BME280;19141;48.980;8.410;2023-02-13T17:07:39;102132.19;;;6.61;91.98
32789;BME280;19141;48.980;8.410;2023-02-13T17:10:07;102137.78;;;6.56;92.08
32789;BME280;19141;48.980;8.410;2023-02-13T17:12:37;102140.81;;;6.50;92.75
32789;BME280;19141;48.980;8.410;2023-02-13T17:15:04;102132.94;;;6.36;93.03
32789;BME280;19141;48.980;8.410;2023-02-13T17:17:30;102143.19;;;6.28;93.70
32789;BME280;19141;48.980;8.410;2023-02-13T17:19:59;102147.06;;;6.22;94.06
32789;BME280;19141;48.980;8.410;2023-02-13T17:22:31;102152.75;;;6.16;93.69
32789;BME280;19141;48.980;8.410;2023-02-13T17:24:59;102151.84;;;6.03;93.95
32789;BME280;19141;48.980;8.410;2023-02-13T17:27:25;102147.78;;;5.83;94.77
32789;BME280;19141;48.980;8.410;2023-02-13T17:29:51;102156.78;;;5.94;94.71
32789;BME280;19141;48.980;8.410;2023-02-13T17:32:19;102155.34;;;5.75;94.46
32789;BME280;19141;48.980;8.410;2023-02-13T17:34:45;102156.97;;;5.63;95.83
32789;BME280;19141;48.980;8.410;2023-02-13T17:37:17;102150.47;;;5.54;96.39
32789;BME280;19141;48.980;8.410;2023-02-13T17:39:44;102145.72;;;5.45;97.31
32789;BME280;19141;48.980;8.410;2023-02-13T17:42:16;102157.13;;;5.45;97.48
32789;BME280;19141;48.980;8.410;2023-02-13T17:44:42;102157.03;;;5.33;97.83
32789;BME280;19141;48.980;8.410;2023-02-13T17:47:07;102152.13;;;5.27;98.02
32789;BME280;19141;48.980;8.410;2023-02-13T17:49:32;102153.53;;;5.18;98.27
32789;BME280;19141;48.980;8.410;2023-02-13T17:51:58;102160.28;;;5.08;98.56
32789;BME280;19141;48.980;8.410;2023-02-13T17:54:23;102168.09;;;4.95;99.22
32789;BME280;19141;48.980;8.410;2023-02-13T17:56:49;102162.41;;;4.87;98.92
32789;BME280;19141;48.980;8.410;2023-02-13T17:59:14;102169.00;;;4.80;99.44
32789;BME280;19141;48.980;8.410;2023-02-13T18:01:40;102163.56;;;4.67;100.00
32789;BME280;19141;48.980;8.410;2023-02-13T18:04:05;102162.91;;;4.63;100.00
32789;BME280;19141;48.980;8.410;2023-02-13T18:06:31;102168.69;;;4.70;100.00
32789;BME280;19141;48.980;8.410;2023-02-13T18:08:56;102167.66;;;4.73;100.00
32789;BME280;19141;48.980;8.410;2023-02-13T18:11:21;102165.22;;;4.70;100.00
32789;BME280;19141;48.980;8.410;2023-02-13T18:13:47;102165.56;;;4.63;100.00
32789;BME280;19141;48.980;8.410;2023-02-13T18:16:13;102169.41;;;4.58;100.00
32789;BME280;19141;48.980;8.410;2023-02-13T18:18:38;102168.41;;;4.45;100.00
32789;BME280;19141;48.980;8.410;2023-02-13T18:21:04;102164.13;;;4.42;100.00
32789;BME280;19141;48.980;8.410;2023-02-13T18:23:29;102162.09;;;4.31;100.00
32789;BME280;19141;48.980;8.410;2023-02-13T18:26:08;102165.91;;;4.10;100.00
32789;BME280;19141;48.980;8.410;2023-02-13T18:28:34;102165.34;;;4.05;100.00
32789;BME280;19141;48.980;8.410;2023-02-13T18:31:00;102166.00;;;4.08;100.00
32789;BME280;19141;48.980;8.410;2023-02-13T18:33:26;102170.44;;;4.08;100.00
32789;BME280;19141;48.980;8.410;2023-02-13T18:35:57;102166.00;;;4.08;100.00
32789;BME280;19141;48.980;8.410;2023-02-13T18:38:22;102157.44;;;4.05;100.00
32789;BME280;19141;48.980;8.410;2023-02-13T18:40:48;102156.59;;;4.04;100.00
32789;BME280;19141;48.980;8.410;2023-02-13T18:43:13;102143.56;;;4.01;100.00
32789;BME280;19141;48.980;8.410;2023-02-13T18:45:39;102148.56;;;3.90;100.00
32789;BME280;19141;48.980;8.410;2023-02-13T18:48:04;102154.16;;;3.84;100.00
32789;BME280;19141;48.980;8.410;2023-02-13T18:50:29;102142.78;;;3.68;100.00
32789;BME280;19141;48.980;8.410;2023-02-13T18:52:55;102159.00;;;3.60;100.00
32789;BME280;19141;48.980;8.410;2023-02-13T18:55:20;102166.00;;;3.44;100.00
32789;BME280;19141;48.980;8.410;2023-02-13T18:57:45;102157.78;;;3.50;100.00
32789;BME280;19141;48.980;8.410;2023-02-13T19:00:12;102163.44;;;3.42;100.00
32789;BME280;19141;48.980;8.410;2023-02-13T19:02:38;102161.97;;;3.37;100.00
32789;BME280;19141;48.980;8.410;2023-02-13T19:05:03;102167.22;;;3.21;100.00
32789;BME280;19141;48.980;8.410;2023-02-13T19:07:30;102165.28;;;3.07;100.00
32789;BME280;19141;48.980;8.410;2023-02-13T19:09:56;102170.88;;;3.01;100.00
32789;BME280;19141;48.980;8.410;2023-02-13T19:12:21;102159.16;;;2.89;100.00
32789;BME280;19141;48.980;8.410;2023-02-13T19:14:46;102167.69;;;2.94;100.00
32789;BME280;19141;48.980;8.410;2023-02-13T19:17:12;102173.88;;;2.93;100.00
32789;BME280;19141;48.980;8.410;2023-02-13T19:19:37;102173.25;;;2.88;100.00
32789;BME280;19141;48.980;8.410;2023-02-13T19:22:03;102162.50;;;2.76;100.00
32789;BME280;19141;48.980;8.410;2023-02-13T19:24:28;102164.97;;;2.79;100.00
32789;BME280;19141;48.980;8.410;2023-02-13T19:26:54;102162.88;;;2.68;100.00
32789;BME280;19141;48.980;8.410;2023-02-13T19:29:19;102166.75;;;2.61;100.00
32789;BME280;19141;48.980;8.410;2023-02-13T19:31:44;102174.22;;;2.51;100.00
32789;BME280;19141;48.980;8.410;2023-02-13T19:34:10;102179.56;;;2.50;100.00
32789;BME280;19141;48.980;8.410;2023-02-13T19:36:35;102180.91;;;2.39;100.00
32789;BME280;19141;48.980;8.410;2023-02-13T19:39:03;102183.84;;;2.33;100.00
32789;BME280;19141;48.980;8.410;2023-02-13T19:41:29;102189.94;;;2.34;100.00
32789;BME280;19141;48.980;8.410;2023-02-13T19:43:55;102174.91;;;2.18;100.00
32789;BME280;19141;48.980;8.410;2023-02-13T19:46:29;102189.69;;;2.21;100.00
32789;BME280;19141;48.980;8.410;2023-02-13T19:48:55;102187.03;;;2.21;100.00
32789;BME280;19141;48.980;8.410;2023-02-13T19:51:22;102189.75;;;2.20;100.00
32789;BME280;19141;48.980;8.410;2023-02-13T19:53:53;102192.53;;;2.16;100.00
32789;BME280;19141;48.980;8.410;2023-02-13T19:56:19;102187.50;;;2.12;100.00
32789;BME280;19141;48.980;8.410;2023-02-13T19:58:44;102192.34;;;2.02;100.00
32789;BME280;19141;48.980;8.410;2023-02-13T20:01:15;102187.00;;;2.04;100.00